createdAt,value
2018-12-29T00:01:02.126Z,41.53
2018-12-29T00:03:30.888Z,39.10
2018-12-29T00:05:59.833Z,40.80
2018-12-29T00:08:28.602Z,40.90
2018-12-29T00:10:57.382Z,41.20
2018-12-29T00:13:26.157Z,39.43
2018-12-29T00:15:54.946Z,36.90
2018-12-29T00:18:24.069Z,42.90
2018-12-29T00:20:52.845Z,47.13
2018-12-29T00:23:21.616Z,41.00
2018-12-29T00:25:50.695Z,45.40
2018-12-29T00:28:19.529Z,40.00
2018-12-29T00:30:48.409Z,48.73
2018-12-29T00:33:17.262Z,43.63
2018-12-29T00:35:46.433Z,41.30
2018-12-29T00:38:15.764Z,50.80
2018-12-29T00:40:44.530Z,42.20
2018-12-29T00:43:13.610Z,43.60
2018-12-29T00:45:42.374Z,44.53
2018-12-29T00:48:11.503Z,44.03
2018-12-29T00:50:40.576Z,45.90
2018-12-29T00:53:09.375Z,40.70
2018-12-29T00:55:38.153Z,44.83
2018-12-29T00:58:06.936Z,42.33
2018-12-29T01:00:35.765Z,41.17
2018-12-29T01:03:04.646Z,45.43
2018-12-29T01:05:33.416Z,42.10
2018-12-29T01:08:02.283Z,44.83
2018-12-29T01:10:31.045Z,43.73
2018-12-29T01:12:59.857Z,44.43
2018-12-29T01:15:28.848Z,49.20
2018-12-29T01:17:57.866Z,44.63
2018-12-29T01:20:26.706Z,41.33
2018-12-29T01:22:55.799Z,49.57
2018-12-29T01:25:24.561Z,44.50
2018-12-29T01:27:53.325Z,48.47
2018-12-29T01:30:22.113Z,47.17
2018-12-29T01:32:50.892Z,47.50
2018-12-29T01:35:19.669Z,48.93
2018-12-29T01:37:48.447Z,47.87
2018-12-29T01:40:17.291Z,51.10
2018-12-29T01:42:46.137Z,53.13
2018-12-29T01:45:17.598Z,52.37
2018-12-29T01:47:47.002Z,47.90
2018-12-29T01:50:15.941Z,55.37
2018-12-29T01:52:44.723Z,51.53
2018-12-29T01:55:13.514Z,50.53
2018-12-29T01:57:42.280Z,42.50
2018-12-29T02:00:11.228Z,51.33
2018-12-29T02:02:40.175Z,51.33
2018-12-29T02:05:12.568Z,46.77
2018-12-29T02:07:41.443Z,54.93
2018-12-29T02:10:10.329Z,51.83
2018-12-29T02:12:39.374Z,48.00
2018-12-29T02:15:08.226Z,55.30
2018-12-29T02:17:37.018Z,46.70
2018-12-29T02:20:06.150Z,56.43
2018-12-29T02:22:35.428Z,63.30
2018-12-29T02:25:04.590Z,54.40
2018-12-29T02:27:33.374Z,58.57
2018-12-29T02:30:02.570Z,57.07
2018-12-29T02:32:31.953Z,51.70
2018-12-29T02:35:01.057Z,52.40
2018-12-29T02:37:29.826Z,70.70
2018-12-29T02:39:58.598Z,56.93
2018-12-29T02:42:27.461Z,62.60
2018-12-29T02:44:56.825Z,62.17
2018-12-29T02:47:25.623Z,71.07
2018-12-29T02:49:54.399Z,63.10
2018-12-29T02:52:23.177Z,54.03
2018-12-29T02:54:51.988Z,59.60
2018-12-29T02:57:21.060Z,57.33
2018-12-29T02:59:49.836Z,62.73
2018-12-29T03:02:18.949Z,65.57
2018-12-29T03:04:47.745Z,64.23
2018-12-29T03:07:16.505Z,70.90
2018-12-29T03:09:45.297Z,69.33
2018-12-29T03:12:14.066Z,64.40
2018-12-29T03:14:42.849Z,70.90
2018-12-29T03:17:11.621Z,77.63
2018-12-29T03:19:40.414Z,72.53
2018-12-29T03:22:09.193Z,64.97
2018-12-29T03:24:37.982Z,91.43
2018-12-29T03:27:06.745Z,79.10
2018-12-29T03:29:35.535Z,78.13
2018-12-29T03:32:04.831Z,81.87
2018-12-29T03:34:33.701Z,83.57
2018-12-29T03:37:02.469Z,60.93
2018-12-29T03:39:31.733Z,77.93
2018-12-29T03:42:00.505Z,91.80
2018-12-29T03:44:29.574Z,76.00
2018-12-29T03:46:58.656Z,69.53
2018-12-29T03:49:27.740Z,78.30
2018-12-29T03:51:56.522Z,76.53
2018-12-29T03:54:25.361Z,86.13
2018-12-29T03:56:54.145Z,78.53
2018-12-29T03:59:22.917Z,81.97
2018-12-29T04:01:51.719Z,99.70
2018-12-29T04:04:20.494Z,68.07
2018-12-29T04:06:49.273Z,81.53
2018-12-29T04:09:34.464Z,68.57
2018-12-29T04:12:09.319Z,81.90
2018-12-29T04:14:38.154Z,69.97
2018-12-29T04:17:06.950Z,87.23
2018-12-29T04:19:35.794Z,83.93
2018-12-29T04:22:04.728Z,82.27
2018-12-29T04:24:33.490Z,68.53
2018-12-29T04:27:02.270Z,82.30
2018-12-29T04:29:31.143Z,69.00
2018-12-29T04:32:00.187Z,100.20
2018-12-29T04:34:28.958Z,105.40
2018-12-29T04:36:57.749Z,93.83
2018-12-29T04:39:26.524Z,98.63
2018-12-29T04:41:55.293Z,84.20
2018-12-29T04:44:24.071Z,78.63
2018-12-29T04:46:52.919Z,96.00
2018-12-29T04:49:22.016Z,83.93
2018-12-29T04:51:50.890Z,85.17
2018-12-29T04:54:19.697Z,106.37
2018-12-29T04:56:48.705Z,93.07
2018-12-29T04:59:17.494Z,96.17
2018-12-29T05:01:46.329Z,92.47
2018-12-29T05:04:15.197Z,108.03
2018-12-29T05:06:44.009Z,102.90
2018-12-29T05:09:13.376Z,102.60
2018-12-29T05:11:42.162Z,106.33
2018-12-29T05:14:11.043Z,135.33
2018-12-29T05:16:40.057Z,104.80
2018-12-29T05:19:08.859Z,115.80
2018-12-29T05:21:37.665Z,135.47
2018-12-29T05:24:06.487Z,108.33
2018-12-29T05:26:35.502Z,119.40
2018-12-29T05:29:04.374Z,107.33
2018-12-29T05:31:33.172Z,96.40
2018-12-29T05:34:01.967Z,91.10
2018-12-29T05:36:30.763Z,110.17
2018-12-29T05:38:59.541Z,121.57
2018-12-29T05:41:28.335Z,118.67
2018-12-29T05:43:57.109Z,107.10
2018-12-29T05:46:25.987Z,91.73
2018-12-29T05:48:54.781Z,150.27
2018-12-29T05:51:23.575Z,101.60
2018-12-29T05:53:52.997Z,147.13
2018-12-29T05:56:22.178Z,142.37
2018-12-29T05:58:50.954Z,152.27
2018-12-29T06:01:19.737Z,132.73
2018-12-29T06:03:48.521Z,188.27
2018-12-29T06:06:17.603Z,211.40
2018-12-29T06:08:46.713Z,131.97
2018-12-29T06:11:15.506Z,153.93
2018-12-29T06:13:44.273Z,115.97
2018-12-29T06:16:13.057Z,121.57
2018-12-29T06:18:41.906Z,157.33
2018-12-29T06:21:10.720Z,140.03
2018-12-29T06:23:39.490Z,147.20
2018-12-29T06:26:08.273Z,144.97
2018-12-29T06:28:37.377Z,112.33
2018-12-29T06:31:06.182Z,143.30
2018-12-29T06:33:34.970Z,124.27
2018-12-29T06:36:03.754Z,164.77
2018-12-29T06:38:32.522Z,110.83
2018-12-29T06:41:01.323Z,155.93
2018-12-29T06:43:30.100Z,133.07
2018-12-29T06:45:58.961Z,132.83
2018-12-29T06:48:27.806Z,125.67
2018-12-29T06:50:56.590Z,114.63
2018-12-29T06:53:25.364Z,140.67
2018-12-29T06:55:54.149Z,136.23
2018-12-29T06:58:23.257Z,121.20
2018-12-29T07:00:52.128Z,176.07
2018-12-29T07:03:20.914Z,126.47
2018-12-29T07:05:49.736Z,166.80
2018-12-29T07:08:18.525Z,201.27
2018-12-29T07:10:47.606Z,113.53
2018-12-29T07:13:16.385Z,111.00
2018-12-29T07:15:45.149Z,165.83
2018-12-29T07:18:13.928Z,142.63
2018-12-29T07:20:42.787Z,128.13
2018-12-29T07:23:11.569Z,128.70
2018-12-29T07:25:40.348Z,134.90
2018-12-29T07:28:09.138Z,127.30
2018-12-29T07:30:37.922Z,123.37
2018-12-29T07:33:06.747Z,147.30
2018-12-29T07:35:35.839Z,125.67
2018-12-29T07:38:04.934Z,125.33
2018-12-29T07:40:33.743Z,114.30
2018-12-29T07:43:02.628Z,131.73
2018-12-29T07:45:31.539Z,119.43
2018-12-29T07:48:00.470Z,145.93
2018-12-29T07:50:29.305Z,193.43
2018-12-29T07:52:58.378Z,135.23
2018-12-29T07:55:27.154Z,128.50
2018-12-29T07:57:55.942Z,117.70
2018-12-29T08:00:24.731Z,100.57
2018-12-29T08:02:53.798Z,144.63
2018-12-29T08:05:22.713Z,148.47
2018-12-29T08:07:51.885Z,132.30
2018-12-29T08:10:20.669Z,127.07
2018-12-29T08:12:49.503Z,148.17
2018-12-29T08:15:18.273Z,136.20
2018-12-29T08:17:47.062Z,152.53
2018-12-29T08:20:16.123Z,183.20
2018-12-29T08:22:45.276Z,119.90
2018-12-29T08:25:33.283Z,200.83
2018-12-29T08:28:02.101Z,172.97
2018-12-29T08:30:31.246Z,255.27
2018-12-29T08:33:00.084Z,353.30
2018-12-29T08:35:28.881Z,253.60
2018-12-29T08:37:57.681Z,291.00
2018-12-29T08:40:26.438Z,304.60
2018-12-29T08:42:55.302Z,213.70
2018-12-29T08:45:24.158Z,260.40
2018-12-29T08:47:52.946Z,187.07
2018-12-29T08:50:21.781Z,223.63
2018-12-29T08:52:50.589Z,139.17
2018-12-29T08:55:19.369Z,243.63
2018-12-29T08:57:48.181Z,280.27
2018-12-29T09:00:16.978Z,237.23
2018-12-29T09:02:45.752Z,172.27
2018-12-29T09:05:14.533Z,436.50
2018-12-29T09:07:43.338Z,166.47
2018-12-29T09:10:12.131Z,208.07
2018-12-29T09:12:40.896Z,194.17
2018-12-29T09:15:09.685Z,217.67
2018-12-29T09:17:38.697Z,273.13
2018-12-29T09:20:07.674Z,327.83
2018-12-29T09:22:36.516Z,294.13
2018-12-29T09:25:05.322Z,186.40
2018-12-29T09:27:34.421Z,286.53
2018-12-29T09:30:03.314Z,264.93
2018-12-29T09:32:32.414Z,233.33
2018-12-29T09:35:01.204Z,264.47
2018-12-29T09:37:29.964Z,183.83
2018-12-29T09:39:59.225Z,331.73
2018-12-29T09:42:28.014Z,214.17
2018-12-29T09:44:57.154Z,199.57
2018-12-29T09:47:26.566Z,386.23
2018-12-29T09:49:55.364Z,326.77
2018-12-29T09:52:24.153Z,318.37
2018-12-29T09:54:52.935Z,175.60
2018-12-29T09:57:21.715Z,362.57
2018-12-29T09:59:50.831Z,224.43
2018-12-29T10:02:19.638Z,273.73
2018-12-29T10:04:48.710Z,314.90
2018-12-29T10:07:17.796Z,538.33
2018-12-29T10:09:46.822Z,411.27
2018-12-29T10:12:15.593Z,293.30
2018-12-29T10:14:44.457Z,298.57
2018-12-29T10:17:13.234Z,303.07
2018-12-29T10:19:42.029Z,233.70
2018-12-29T10:22:10.813Z,280.70
2018-12-29T10:24:40.261Z,248.07
2018-12-29T10:27:09.170Z,201.13
2018-12-29T10:29:37.995Z,201.33
2018-12-29T10:32:06.865Z,210.83
2018-12-29T10:34:35.661Z,330.23
2018-12-29T10:37:04.745Z,183.33
2018-12-29T10:39:33.577Z,165.83
2018-12-29T10:42:02.433Z,81.37
2018-12-29T10:44:31.209Z,98.87
2018-12-29T10:47:00.003Z,47.93
2018-12-29T10:49:28.777Z,32.43
2018-12-29T10:51:57.670Z,32.53
2018-12-29T10:54:26.631Z,34.90
2018-12-29T10:56:55.534Z,45.40
2018-12-29T10:59:24.556Z,30.70
2018-12-29T11:01:53.397Z,24.17
2018-12-29T11:04:22.261Z,31.60
2018-12-29T11:06:51.682Z,39.30
2018-12-29T11:09:39.913Z,39.20
2018-12-29T11:12:08.815Z,42.93
2018-12-29T11:14:37.673Z,26.17
2018-12-29T11:17:06.506Z,26.37
2018-12-29T11:19:35.522Z,32.93
2018-12-29T11:22:04.406Z,31.03
2018-12-29T11:24:33.194Z,70.27
2018-12-29T11:27:01.993Z,60.53
2018-12-29T11:29:30.869Z,73.63
2018-12-29T11:31:59.722Z,69.47
2018-12-29T11:34:28.489Z,72.60
2018-12-29T11:36:57.274Z,57.57
2018-12-29T11:39:26.396Z,62.87
2018-12-29T11:41:55.261Z,39.40
2018-12-29T11:44:24.091Z,29.47
2018-12-29T11:46:52.869Z,28.33
2018-12-29T11:49:21.730Z,31.47
2018-12-29T11:51:50.513Z,29.43
2018-12-29T11:54:19.316Z,24.97
2018-12-29T11:56:48.106Z,34.27
2018-12-29T11:59:16.878Z,48.00
2018-12-29T12:01:45.668Z,32.00
2018-12-29T12:04:14.450Z,47.27
2018-12-29T12:06:43.311Z,42.33
2018-12-29T12:09:12.242Z,39.47
2018-12-29T12:11:41.021Z,40.27
2018-12-29T12:14:09.862Z,50.20
2018-12-29T12:16:38.645Z,58.33
2018-12-29T12:19:07.495Z,34.00
2018-12-29T12:21:37.126Z,34.57
2018-12-29T12:24:05.992Z,26.80
2018-12-29T12:26:34.821Z,25.43
2018-12-29T12:29:03.673Z,33.87
2018-12-29T12:31:33.022Z,24.20
2018-12-29T12:34:01.998Z,29.27
2018-12-29T12:36:31.053Z,26.20
2018-12-29T12:38:59.904Z,40.53
2018-12-29T12:41:29.233Z,24.97
2018-12-29T12:43:58.461Z,27.97
2018-12-29T12:46:27.549Z,27.37
2018-12-29T12:48:57.018Z,30.07
2018-12-29T12:51:25.793Z,29.67
2018-12-29T12:53:54.588Z,31.10
2018-12-29T12:56:23.364Z,29.90
2018-12-29T12:58:52.165Z,23.10
2018-12-29T13:01:21.430Z,24.40
2018-12-29T13:03:50.626Z,27.17
2018-12-29T13:06:19.406Z,25.13
2018-12-29T13:08:48.337Z,25.70
2018-12-29T13:11:17.150Z,23.47
2018-12-29T13:13:45.956Z,28.77
2018-12-29T13:16:15.127Z,40.33
2018-12-29T13:18:44.069Z,30.90
2018-12-29T13:21:12.925Z,25.90
2018-12-29T13:23:41.850Z,26.73
2018-12-29T13:26:10.655Z,25.60
2018-12-29T13:28:39.512Z,28.33
2018-12-29T13:31:08.412Z,28.30
2018-12-29T13:33:37.251Z,20.47
2018-12-29T13:36:06.681Z,20.03
2018-12-29T13:38:35.515Z,21.70
2018-12-29T13:41:04.359Z,19.20
2018-12-29T13:43:33.273Z,18.67
2018-12-29T13:46:02.249Z,19.83
2018-12-29T13:48:31.158Z,24.33
2018-12-29T13:51:00.061Z,27.77
2018-12-29T13:53:29.099Z,35.67
2018-12-29T13:55:57.976Z,23.70
2018-12-29T13:58:26.812Z,40.47
2018-12-29T14:00:56.247Z,25.33
2018-12-29T14:03:25.069Z,25.63
2018-12-29T14:05:54.087Z,25.20
2018-12-29T14:08:22.988Z,26.93
2018-12-29T14:10:52.151Z,20.50
2018-12-29T14:13:21.131Z,25.10
2018-12-29T14:15:50.064Z,21.23
2018-12-29T14:18:19.104Z,19.33
2018-12-29T14:20:48.069Z,21.13
2018-12-29T14:23:17.171Z,22.97
2018-12-29T14:25:46.152Z,23.93
2018-12-29T14:28:15.120Z,25.37
2018-12-29T14:30:44.111Z,20.23
2018-12-29T14:33:13.060Z,25.97
2018-12-29T14:35:42.239Z,24.47
2018-12-29T14:38:11.201Z,22.57
2018-12-29T14:40:40.227Z,20.57
2018-12-29T14:43:09.064Z,19.03
2018-12-29T14:45:37.988Z,19.63
2018-12-29T14:48:07.185Z,18.50
2018-12-29T14:50:36.183Z,23.17
2018-12-29T14:53:05.001Z,21.63
2018-12-29T14:55:34.043Z,22.53
2018-12-29T14:58:02.967Z,20.53
2018-12-29T15:00:32.344Z,17.87
2018-12-29T15:03:02.406Z,18.90
2018-12-29T15:05:31.379Z,18.70
2018-12-29T15:08:00.325Z,20.47
2018-12-29T15:10:29.566Z,18.73
2018-12-29T15:12:58.521Z,20.93
2018-12-29T15:15:28.009Z,26.63
2018-12-29T15:17:57.178Z,22.33
2018-12-29T15:20:26.567Z,20.83
2018-12-29T15:22:56.113Z,21.10
2018-12-29T15:25:25.195Z,18.90
2018-12-29T15:27:54.370Z,23.00
2018-12-29T15:30:23.639Z,22.13
2018-12-29T15:32:52.684Z,20.83
2018-12-29T15:35:22.316Z,23.70
2018-12-29T15:37:51.801Z,18.47
2018-12-29T15:40:21.102Z,22.10
2018-12-29T15:42:50.328Z,93.17
2018-12-29T15:45:19.409Z,20.87
2018-12-29T15:47:48.491Z,21.23
2018-12-29T15:50:17.330Z,37.00
2018-12-29T15:52:46.172Z,24.00
2018-12-29T15:55:15.256Z,19.83
2018-12-29T15:57:44.250Z,24.87
2018-12-29T16:00:13.188Z,26.03
2018-12-29T16:02:42.100Z,19.90
2018-12-29T16:05:11.067Z,25.37
2018-12-29T16:07:40.428Z,25.27
2018-12-29T16:10:09.387Z,24.20
2018-12-29T16:12:38.558Z,24.67
2018-12-29T16:15:08.032Z,22.73
2018-12-29T16:17:37.016Z,25.10
2018-12-29T16:20:06.836Z,24.63
2018-12-29T16:22:35.768Z,22.70
2018-12-29T16:25:04.878Z,24.57
2018-12-29T16:27:33.874Z,24.47
2018-12-29T16:30:02.783Z,22.93
2018-12-29T16:32:31.715Z,25.87
2018-12-29T16:35:00.537Z,26.33
2018-12-29T16:37:29.418Z,31.53
2018-12-29T16:39:58.386Z,30.77
2018-12-29T16:42:27.480Z,29.37
2018-12-29T16:44:56.316Z,29.93
2018-12-29T16:47:25.459Z,30.30
2018-12-29T16:49:54.413Z,31.77
2018-12-29T16:52:23.575Z,32.17
2018-12-29T16:54:53.349Z,33.17
2018-12-29T16:57:22.739Z,28.27
2018-12-29T16:59:51.575Z,26.50
2018-12-29T17:02:20.979Z,26.70
2018-12-29T17:04:49.804Z,28.97
2018-12-29T17:07:19.248Z,32.27
2018-12-29T17:09:48.092Z,33.33
2018-12-29T17:12:17.198Z,28.73
2018-12-29T17:14:46.127Z,29.27
2018-12-29T17:17:15.048Z,28.97
2018-12-29T17:19:44.263Z,24.63
2018-12-29T17:22:13.093Z,28.43
2018-12-29T17:24:41.948Z,27.93
2018-12-29T17:27:11.062Z,35.60
2018-12-29T17:29:40.313Z,29.27
2018-12-29T17:32:09.288Z,32.43
2018-12-29T17:34:38.170Z,32.20
2018-12-29T17:37:07.085Z,26.27
2018-12-29T17:39:36.297Z,28.80
2018-12-29T17:42:05.322Z,36.23
2018-12-29T17:44:34.251Z,25.23
2018-12-29T17:47:03.415Z,75.00
2018-12-29T17:49:32.572Z,24.93
2018-12-29T17:52:01.764Z,43.60
2018-12-29T17:54:30.642Z,32.53
2018-12-29T17:56:59.517Z,26.13
2018-12-29T17:59:28.430Z,25.37
2018-12-29T18:01:57.839Z,27.87
2018-12-29T18:04:27.112Z,29.23
2018-12-29T18:06:56.034Z,32.97
2018-12-29T18:09:25.011Z,28.53
2018-12-29T18:11:54.498Z,26.83
2018-12-29T18:14:23.397Z,28.37
2018-12-29T18:16:52.317Z,35.50
2018-12-29T18:19:21.203Z,28.53
2018-12-29T18:21:50.127Z,30.27
2018-12-29T18:24:19.024Z,32.13
2018-12-29T18:26:47.960Z,30.97
2018-12-29T18:29:16.778Z,35.00
2018-12-29T18:31:45.639Z,33.63
2018-12-29T18:34:14.516Z,42.20
2018-12-29T18:36:43.539Z,38.60
2018-12-29T18:39:12.787Z,41.13
2018-12-29T18:41:41.624Z,50.63
2018-12-29T18:44:11.004Z,39.27
2018-12-29T18:46:40.300Z,37.40
2018-12-29T18:49:09.275Z,34.63
2018-12-29T18:51:38.275Z,40.87
2018-12-29T18:54:07.379Z,52.13
2018-12-29T18:56:36.335Z,53.13
2018-12-29T18:59:05.241Z,58.73
2018-12-29T19:01:34.149Z,59.47
2018-12-29T19:04:03.053Z,54.70
2018-12-29T19:06:31.943Z,78.10
2018-12-29T19:09:00.843Z,78.10
2018-12-29T19:11:30.035Z,68.20
2018-12-29T19:13:58.879Z,56.27
2018-12-29T19:16:27.690Z,53.40
2018-12-29T19:18:56.958Z,54.07
2018-12-29T19:21:26.001Z,46.07
2018-12-29T19:23:55.614Z,42.87
2018-12-29T19:26:25.022Z,40.97
2018-12-29T19:28:54.087Z,64.40
2018-12-29T19:31:22.862Z,55.80
2018-12-29T19:33:51.664Z,37.23
2018-12-29T19:36:20.769Z,47.83
2018-12-29T19:38:49.828Z,30.60
2018-12-29T19:41:18.673Z,31.00
2018-12-29T19:43:47.841Z,33.50
2018-12-29T19:46:17.070Z,34.50
2018-12-29T19:48:45.858Z,30.13
2018-12-29T19:51:14.988Z,30.50
2018-12-29T19:53:44.154Z,33.13
2018-12-29T19:56:13.212Z,34.87
2018-12-29T19:58:41.990Z,44.90
2018-12-29T20:01:10.770Z,35.70
2018-12-29T20:03:39.546Z,32.37
2018-12-29T20:06:11.256Z,32.27
2018-12-29T20:08:38.877Z,39.37
2018-12-29T20:11:07.641Z,38.10
2018-12-29T20:13:36.416Z,45.80
2018-12-29T20:16:05.228Z,51.23
2018-12-29T20:18:34.006Z,58.20
2018-12-29T20:21:03.094Z,48.40
2018-12-29T20:23:32.147Z,40.33
2018-12-29T20:26:01.000Z,62.07
2018-12-29T20:28:30.129Z,50.30
2018-12-29T20:30:59.208Z,55.67
2018-12-29T20:33:27.998Z,56.80
2018-12-29T20:35:57.616Z,48.20
2018-12-29T20:38:26.506Z,51.70
2018-12-29T20:40:55.294Z,59.20
2018-12-29T20:43:24.063Z,59.33
2018-12-29T20:45:53.231Z,55.97
2018-12-29T20:48:22.001Z,56.77
2018-12-29T20:50:50.795Z,60.10
2018-12-29T20:53:19.574Z,53.33
2018-12-29T20:55:48.361Z,77.57
2018-12-29T20:58:17.130Z,63.13
2018-12-29T21:00:46.321Z,57.93
2018-12-29T21:03:15.390Z,77.57
2018-12-29T21:05:44.185Z,79.87
2018-12-29T21:08:12.953Z,57.30
2018-12-29T21:10:41.748Z,52.10
2018-12-29T21:13:10.788Z,50.00
2018-12-29T21:15:39.581Z,48.33
2018-12-29T21:18:08.348Z,48.63
2018-12-29T21:20:37.135Z,54.13
2018-12-29T21:23:06.001Z,53.47
2018-12-29T21:25:34.920Z,55.47
2018-12-29T21:28:04.111Z,54.73
2018-12-29T21:30:32.902Z,59.20
2018-12-29T21:33:01.768Z,49.63
2018-12-29T21:35:30.876Z,45.33
2018-12-29T21:37:59.657Z,55.83
2018-12-29T21:40:28.745Z,41.60
2018-12-29T21:42:57.756Z,52.67
2018-12-29T21:45:26.606Z,41.70
2018-12-29T21:47:55.413Z,47.03
2018-12-29T21:50:25.955Z,44.97
2018-12-29T21:52:54.710Z,45.53
2018-12-29T21:55:23.529Z,47.90
2018-12-29T21:57:52.306Z,46.93
2018-12-29T22:00:21.069Z,43.10
2018-12-29T22:02:49.863Z,44.17
2018-12-29T22:05:18.946Z,37.70
2018-12-29T22:07:47.730Z,45.00
2018-12-29T22:10:16.522Z,39.90
2018-12-29T22:12:45.309Z,40.47
2018-12-29T22:15:14.172Z,36.07
2018-12-29T22:17:42.952Z,41.67
2018-12-29T22:20:12.073Z,42.77
2018-12-29T22:22:40.861Z,42.50
2018-12-29T22:25:09.633Z,39.90
2018-12-29T22:27:38.714Z,46.40
2018-12-29T22:30:07.916Z,37.27
2018-12-29T22:32:37.010Z,46.33
2018-12-29T22:35:05.925Z,43.47
2018-12-29T22:37:34.717Z,50.10
2018-12-29T22:40:03.668Z,26.87
2018-12-29T22:42:32.470Z,29.60
2018-12-29T22:45:01.260Z,31.93
2018-12-29T22:47:30.117Z,24.63
2018-12-29T22:49:59.373Z,23.83
2018-12-29T22:52:28.297Z,19.77
2018-12-29T22:54:57.169Z,21.87
2018-12-29T22:57:26.048Z,20.57
2018-12-29T22:59:55.311Z,22.17
2018-12-29T23:02:24.161Z,16.67
2018-12-29T23:04:52.926Z,14.07
2018-12-29T23:07:22.089Z,14.97
2018-12-29T23:09:50.879Z,16.40
2018-12-29T23:12:19.809Z,14.50
2018-12-29T23:14:48.627Z,17.40
2018-12-29T23:17:17.429Z,13.27
2018-12-29T23:19:46.222Z,18.73
2018-12-29T23:22:15.406Z,21.63
2018-12-29T23:24:44.189Z,13.90
2018-12-29T23:27:12.962Z,22.73
2018-12-29T23:29:41.826Z,14.83
2018-12-29T23:32:10.930Z,24.57
2018-12-29T23:34:40.001Z,13.93
2018-12-29T23:37:09.048Z,17.60
2018-12-29T23:39:37.893Z,16.87
2018-12-29T23:42:06.944Z,24.17
2018-12-29T23:44:35.734Z,19.67
2018-12-29T23:47:04.740Z,18.40
2018-12-29T23:49:33.881Z,20.40
2018-12-29T23:52:03.030Z,21.00
2018-12-29T23:54:31.818Z,18.03
2018-12-29T23:57:01.273Z,23.73
2018-12-29T23:59:30.130Z,21.53
